createdAt,value
2019-02-15T00:02:11.810Z,61.12
2019-02-15T00:04:42.086Z,61.18
2019-02-15T00:07:15.143Z,61.12
2019-02-15T00:09:45.419Z,60.66
2019-02-15T00:12:15.718Z,61.05
2019-02-15T00:14:47.729Z,60.63
2019-02-15T00:17:32.042Z,60.97
2019-02-15T00:20:03.947Z,61.57
2019-02-15T00:22:34.217Z,60.92
2019-02-15T00:25:05.437Z,61.07
2019-02-15T00:27:35.733Z,61.59
2019-02-15T00:30:09.801Z,60.87
2019-02-15T00:32:40.107Z,61.02
2019-02-15T00:35:10.449Z,61.02
2019-02-15T00:37:40.745Z,60.67
2019-02-15T00:40:11.016Z,60.83
2019-02-15T00:42:41.296Z,60.10
2019-02-15T00:45:13.236Z,61.18
2019-02-15T00:47:51.162Z,60.86
2019-02-15T00:50:26.151Z,60.80
2019-02-15T00:52:58.080Z,61.10
2019-02-15T00:55:30.019Z,61.63
2019-02-15T00:58:10.949Z,61.17
2019-02-15T01:00:42.877Z,60.96
2019-02-15T01:03:31.248Z,59.97
2019-02-15T01:06:19.597Z,60.83
2019-02-15T01:09:08.171Z,61.19
2019-02-15T01:11:40.106Z,60.79
2019-02-15T01:14:10.384Z,60.57
2019-02-15T01:16:40.674Z,60.19
2019-02-15T01:19:10.951Z,60.17
2019-02-15T01:21:41.222Z,60.41
2019-02-15T01:24:11.505Z,60.05
2019-02-15T01:26:46.197Z,59.76
2019-02-15T01:29:18.114Z,59.65
2019-02-15T01:31:50.043Z,59.67
2019-02-15T01:34:27.980Z,59.71
2019-02-15T01:36:59.912Z,60.05
2019-02-15T01:39:37.746Z,59.72
2019-02-15T01:42:12.472Z,59.71
2019-02-15T01:44:58.228Z,60.03
2019-02-15T01:47:28.521Z,60.46
2019-02-15T01:49:58.800Z,60.21
2019-02-15T01:52:29.146Z,59.95
2019-02-15T01:54:59.423Z,60.42
2019-02-15T01:57:29.801Z,60.07
2019-02-15T02:00:00.150Z,60.05
2019-02-15T02:02:30.472Z,60.02
2019-02-15T02:05:00.778Z,60.29
2019-02-15T02:07:31.051Z,60.17
2019-02-15T02:10:01.349Z,60.18
2019-02-15T02:12:32.588Z,60.27
2019-02-15T02:15:03.454Z,60.15
2019-02-15T02:17:33.744Z,59.50
2019-02-15T02:20:05.406Z,60.14
2019-02-15T02:22:35.697Z,60.17
2019-02-15T02:25:07.210Z,60.89
2019-02-15T02:27:37.525Z,60.87
2019-02-15T02:30:09.554Z,61.90
2019-02-15T02:32:39.845Z,60.90
2019-02-15T02:35:10.158Z,61.61
2019-02-15T02:37:40.673Z,61.43
2019-02-15T02:40:10.933Z,60.29
2019-02-15T02:42:41.218Z,61.91
2019-02-15T02:45:11.569Z,61.24
2019-02-15T02:47:41.830Z,62.48
2019-02-15T02:50:12.103Z,61.55
2019-02-15T02:52:43.373Z,61.86
2019-02-15T02:55:13.646Z,60.95
2019-02-15T02:57:43.998Z,60.70
2019-02-15T03:00:14.283Z,62.50
2019-02-15T03:02:44.841Z,63.08
2019-02-15T03:05:15.127Z,62.59
2019-02-15T03:07:45.458Z,62.48
2019-02-15T03:10:17.000Z,62.44
2019-02-15T03:12:47.261Z,61.00
2019-02-15T03:15:17.523Z,61.81
2019-02-15T03:17:47.810Z,61.59
2019-02-15T03:20:18.095Z,61.67
2019-02-15T03:22:48.450Z,61.81
2019-02-15T03:25:19.718Z,62.53
2019-02-15T03:27:49.998Z,61.83
2019-02-15T03:30:20.314Z,62.99
2019-02-15T03:32:50.610Z,63.16
2019-02-15T03:35:20.871Z,62.68
2019-02-15T03:37:52.833Z,63.91
2019-02-15T03:40:27.949Z,64.22
2019-02-15T03:42:58.235Z,64.04
2019-02-15T03:45:28.513Z,64.15
2019-02-15T03:47:58.814Z,63.86
2019-02-15T03:50:29.099Z,63.83
2019-02-15T03:52:59.451Z,62.88
2019-02-15T03:55:29.722Z,62.70
2019-02-15T03:58:00.078Z,62.43
2019-02-15T04:00:30.376Z,61.92
2019-02-15T04:03:00.673Z,61.60
2019-02-15T04:05:31.082Z,61.71
2019-02-15T04:08:01.410Z,61.78
2019-02-15T04:10:31.701Z,61.50
2019-02-15T04:13:02.010Z,63.05
2019-02-15T04:15:32.397Z,63.48
2019-02-15T04:18:02.644Z,64.14
2019-02-15T04:20:33.104Z,63.70
2019-02-15T04:23:04.597Z,63.27
2019-02-15T04:25:34.878Z,62.11
2019-02-15T04:28:05.168Z,60.87
2019-02-15T04:30:35.443Z,60.57
2019-02-15T04:33:06.046Z,60.18
2019-02-15T04:35:36.322Z,60.20
2019-02-15T04:38:06.697Z,60.31
2019-02-15T04:40:37.238Z,60.74
2019-02-15T04:43:07.460Z,60.80
2019-02-15T04:45:37.861Z,60.34
2019-02-15T04:48:08.311Z,61.00
2019-02-15T04:50:38.961Z,62.74
2019-02-15T04:53:09.348Z,61.93
2019-02-15T04:55:39.925Z,63.21
2019-02-15T04:58:10.230Z,62.91
2019-02-15T05:00:40.664Z,62.81
2019-02-15T05:03:11.230Z,60.50
2019-02-15T05:05:41.537Z,60.96
2019-02-15T05:08:11.866Z,62.34
2019-02-15T05:10:42.148Z,63.70
2019-02-15T05:13:12.463Z,63.77
2019-02-15T05:15:42.994Z,64.41
2019-02-15T05:18:13.323Z,63.08
2019-02-15T05:20:43.615Z,62.19
2019-02-15T05:23:13.891Z,64.06
2019-02-15T05:25:44.182Z,64.19
2019-02-15T05:28:14.658Z,64.21
2019-02-15T05:30:44.960Z,63.62
2019-02-15T05:33:15.471Z,64.03
2019-02-15T05:35:45.839Z,63.22
2019-02-15T05:38:16.138Z,61.43
2019-02-15T05:40:46.486Z,64.15
2019-02-15T05:43:16.761Z,62.70
2019-02-15T05:45:47.032Z,62.46
2019-02-15T05:48:17.832Z,62.04
2019-02-15T05:50:48.157Z,62.78
2019-02-15T05:53:18.468Z,63.10
2019-02-15T05:55:49.838Z,61.92
2019-02-15T05:58:20.907Z,62.23
2019-02-15T06:00:51.309Z,62.08
2019-02-15T06:03:21.606Z,62.03
2019-02-15T06:05:51.887Z,62.10
2019-02-15T06:08:22.480Z,61.02
2019-02-15T06:10:54.472Z,61.79
2019-02-15T06:13:24.917Z,61.20
2019-02-15T06:15:55.386Z,61.87
2019-02-15T06:18:25.805Z,61.09
2019-02-15T06:20:56.225Z,61.57
2019-02-15T06:23:26.686Z,61.92
2019-02-15T06:25:56.977Z,60.23
2019-02-15T06:28:27.267Z,60.43
2019-02-15T06:30:57.527Z,59.78
2019-02-15T06:33:27.835Z,63.10
2019-02-15T06:35:58.126Z,66.08
2019-02-15T06:38:34.826Z,66.81
2019-02-15T06:41:00.436Z,68.58
2019-02-15T06:43:30.716Z,68.78
2019-02-15T06:46:01.023Z,64.56
2019-02-15T06:48:31.361Z,57.98
2019-02-15T06:51:02.990Z,59.70
2019-02-15T06:53:33.293Z,62.00
2019-02-15T06:56:03.573Z,63.65
2019-02-15T06:58:34.536Z,65.57
2019-02-15T07:01:24.775Z,66.50
2019-02-15T07:03:56.705Z,67.95
2019-02-15T07:06:27.002Z,67.45
2019-02-15T07:08:57.275Z,67.79
2019-02-15T07:11:27.559Z,67.90
2019-02-15T07:13:57.856Z,66.87
2019-02-15T07:16:28.274Z,67.43
2019-02-15T07:18:58.623Z,66.76
2019-02-15T07:21:28.905Z,64.23
2019-02-15T07:23:59.181Z,61.98
2019-02-15T07:26:29.490Z,60.75
2019-02-15T07:28:59.799Z,59.70
2019-02-15T07:31:30.354Z,58.95
2019-02-15T07:34:00.648Z,58.19
2019-02-15T07:36:31.106Z,57.67
2019-02-15T07:39:01.387Z,58.66
2019-02-15T07:41:32.756Z,58.60
2019-02-15T07:44:03.056Z,58.93
2019-02-15T07:46:33.322Z,59.48
2019-02-15T07:49:03.613Z,59.17
2019-02-15T07:51:33.945Z,59.39
2019-02-15T07:54:04.260Z,59.50
2019-02-15T07:56:35.523Z,59.88
2019-02-15T07:59:05.811Z,60.98
2019-02-15T08:01:36.091Z,61.34
2019-02-15T08:04:06.879Z,61.28
2019-02-15T08:06:37.291Z,61.17
2019-02-15T08:09:10.799Z,61.19
2019-02-15T08:11:41.142Z,61.10
2019-02-15T08:14:14.916Z,61.07
2019-02-15T08:16:43.431Z,61.32
2019-02-15T08:19:16.215Z,61.78
2019-02-15T08:21:46.521Z,61.26
2019-02-15T08:24:16.822Z,61.91
2019-02-15T08:26:47.284Z,62.51
2019-02-15T08:29:17.554Z,61.92
2019-02-15T08:31:47.870Z,62.15
2019-02-15T08:34:18.209Z,61.69
2019-02-15T08:36:48.529Z,62.20
2019-02-15T08:39:18.986Z,62.05
2019-02-15T08:42:00.695Z,62.22
2019-02-15T08:44:21.238Z,62.62
2019-02-15T08:46:51.534Z,63.00
2019-02-15T08:49:21.825Z,63.08
2019-02-15T08:51:52.148Z,63.72
2019-02-15T08:54:22.445Z,63.59
2019-02-15T08:56:52.739Z,63.36
2019-02-15T08:59:23.030Z,62.92
2019-02-15T09:02:00.970Z,63.22
2019-02-15T09:04:31.750Z,63.02
2019-02-15T09:07:02.080Z,62.77
2019-02-15T09:09:32.446Z,62.74
2019-02-15T09:12:02.731Z,62.36
2019-02-15T09:14:33.005Z,63.29
2019-02-15T09:17:03.383Z,63.81
2019-02-15T09:19:33.697Z,65.01
2019-02-15T09:22:04.480Z,65.73
2019-02-15T09:24:34.771Z,66.12
2019-02-15T09:27:06.678Z,66.36
2019-02-15T09:29:36.999Z,65.84
2019-02-15T09:32:07.296Z,65.89
2019-02-15T09:34:37.634Z,66.06
2019-02-15T09:37:08.010Z,66.44
2019-02-15T09:39:39.558Z,66.47
2019-02-15T09:42:10.051Z,65.50
2019-02-15T09:44:40.350Z,65.01
2019-02-15T09:47:14.564Z,65.26
2019-02-15T09:49:46.727Z,65.27
2019-02-15T09:52:16.893Z,63.37
2019-02-15T09:54:47.285Z,63.09
2019-02-15T09:57:17.590Z,61.71
2019-02-15T09:59:48.164Z,62.14
2019-02-15T10:02:18.444Z,61.03
2019-02-15T10:04:48.778Z,61.09
2019-02-15T10:07:19.103Z,61.85
2019-02-15T10:09:49.430Z,62.14
2019-02-15T10:12:19.714Z,62.48
2019-02-15T10:14:50.014Z,61.96
2019-02-15T10:17:20.298Z,61.03
2019-02-15T10:19:50.636Z,61.26
2019-02-15T10:22:21.072Z,61.34
2019-02-15T10:24:51.371Z,60.68
2019-02-15T10:27:21.686Z,60.76
2019-02-15T10:29:51.965Z,60.14
2019-02-15T10:32:22.336Z,60.74
2019-02-15T10:34:52.622Z,61.19
2019-02-15T10:37:22.911Z,61.98
2019-02-15T10:39:53.213Z,61.89
2019-02-15T10:42:23.613Z,62.41
2019-02-15T10:44:53.910Z,61.93
2019-02-15T10:47:25.185Z,62.58
2019-02-15T10:49:55.704Z,63.62
2019-02-15T10:52:26.005Z,64.33
2019-02-15T10:54:56.305Z,65.02
2019-02-15T10:57:26.600Z,65.29
2019-02-15T10:59:56.883Z,63.75
2019-02-15T11:02:27.252Z,64.49
2019-02-15T11:04:57.549Z,63.70
2019-02-15T11:07:27.875Z,64.57
2019-02-15T11:09:58.169Z,65.78
2019-02-15T11:12:28.586Z,67.19
2019-02-15T11:14:58.878Z,68.17
2019-02-15T11:17:29.168Z,68.94
2019-02-15T11:19:59.490Z,68.43
2019-02-15T11:22:29.819Z,69.01
2019-02-15T11:25:00.319Z,69.14
2019-02-15T11:27:30.574Z,68.19
2019-02-15T11:30:01.975Z,67.26
2019-02-15T11:32:33.545Z,67.01
2019-02-15T11:35:05.484Z,67.25
2019-02-15T11:37:35.790Z,67.00
2019-02-15T11:40:09.099Z,67.80
2019-02-15T11:42:39.411Z,67.99
2019-02-15T11:45:14.465Z,67.21
2019-02-15T11:47:44.737Z,66.62
2019-02-15T11:50:15.541Z,67.11
2019-02-15T11:52:45.845Z,67.66
2019-02-15T11:55:19.125Z,67.59
2019-02-15T11:57:49.482Z,67.08
2019-02-15T12:00:33.906Z,67.01
2019-02-15T12:03:04.383Z,67.33
2019-02-15T12:05:34.687Z,66.91
2019-02-15T12:08:05.002Z,65.79
2019-02-15T12:10:36.835Z,65.95
2019-02-15T12:13:07.173Z,64.88
2019-02-15T12:15:37.500Z,67.15
2019-02-15T12:18:07.814Z,67.04
2019-02-15T12:20:39.644Z,67.13
2019-02-15T12:23:09.928Z,66.60
2019-02-15T12:25:40.261Z,65.42
2019-02-15T12:28:10.560Z,65.61
2019-02-15T12:30:41.004Z,65.59
2019-02-15T12:33:11.312Z,66.91
2019-02-15T12:35:41.599Z,66.71
2019-02-15T12:38:11.905Z,67.15
2019-02-15T12:40:42.213Z,67.42
2019-02-15T12:43:12.529Z,66.33
2019-02-15T12:45:42.821Z,65.16
2019-02-15T12:48:14.090Z,67.08
2019-02-15T12:50:44.482Z,66.28
2019-02-15T12:53:14.842Z,66.32
2019-02-15T12:55:45.148Z,66.93
2019-02-15T12:58:15.413Z,65.82
2019-02-15T13:00:45.722Z,64.83
2019-02-15T13:03:16.213Z,63.31
2019-02-15T13:05:46.583Z,62.57
2019-02-15T13:08:16.868Z,63.76
2019-02-15T13:10:47.173Z,65.44
2019-02-15T13:13:17.467Z,64.37
2019-02-15T13:15:47.761Z,63.56
2019-02-15T13:18:19.576Z,63.54
2019-02-15T13:20:49.848Z,64.44
2019-02-15T13:23:20.163Z,64.86
2019-02-15T13:25:50.467Z,63.85
2019-02-15T13:28:20.815Z,64.72
2019-02-15T13:30:51.112Z,63.28
2019-02-15T13:33:21.393Z,62.23
2019-02-15T13:35:51.661Z,61.59
2019-02-15T13:38:22.141Z,61.35
2019-02-15T13:40:52.421Z,61.43
2019-02-15T13:43:22.695Z,59.79
2019-02-15T13:45:53.004Z,60.12
2019-02-15T13:48:23.292Z,60.01
2019-02-15T13:50:53.564Z,61.06
2019-02-15T13:53:23.864Z,59.42
2019-02-15T13:55:55.267Z,58.87
2019-02-15T13:58:25.528Z,59.05
2019-02-15T14:00:56.131Z,59.36
2019-02-15T14:03:26.571Z,58.51
2019-02-15T14:05:57.093Z,57.58
2019-02-15T14:08:27.783Z,57.21
2019-02-15T14:10:58.077Z,56.82
2019-02-15T14:13:28.550Z,56.47
2019-02-15T14:15:59.123Z,56.92
2019-02-15T14:18:29.402Z,57.82
2019-02-15T14:21:00.941Z,57.17
2019-02-15T14:23:31.246Z,53.74
2019-02-15T14:26:03.320Z,52.69
2019-02-15T14:28:33.642Z,50.61
2019-02-15T14:31:03.916Z,54.63
2019-02-15T14:33:34.213Z,58.12
2019-02-15T14:36:04.510Z,58.88
2019-02-15T14:38:34.834Z,58.57
2019-02-15T14:41:05.128Z,58.06
2019-02-15T14:43:35.451Z,60.91
2019-02-15T14:46:05.751Z,61.88
2019-02-15T14:48:36.049Z,61.43
2019-02-15T14:51:07.427Z,59.72
2019-02-15T14:53:37.736Z,60.67
2019-02-15T14:56:08.085Z,61.05
2019-02-15T14:58:38.525Z,60.36
2019-02-15T15:01:08.824Z,59.78
2019-02-15T15:03:39.156Z,59.96
2019-02-15T15:06:09.422Z,58.46
2019-02-15T15:08:39.728Z,60.13
2019-02-15T15:11:10.017Z,59.23
2019-02-15T15:13:40.322Z,59.26
2019-02-15T15:16:10.625Z,60.51
2019-02-15T15:18:41.000Z,59.84
2019-02-15T15:21:11.149Z,59.92
2019-02-15T15:23:41.445Z,60.63
2019-02-15T15:26:12.330Z,60.83
2019-02-15T15:28:42.636Z,62.03
2019-02-15T15:31:12.899Z,61.96
2019-02-15T15:33:43.181Z,61.97
2019-02-15T15:36:13.641Z,61.37
2019-02-15T15:38:43.944Z,61.86
2019-02-15T15:41:14.250Z,61.28
2019-02-15T15:43:44.582Z,61.38
2019-02-15T15:46:14.993Z,61.29
2019-02-15T15:48:45.651Z,61.26
2019-02-15T15:51:21.228Z,61.19
2019-02-15T15:53:51.507Z,60.97
2019-02-15T15:56:21.858Z,60.71
2019-02-15T15:58:52.490Z,61.05
2019-02-15T16:01:23.086Z,60.93
2019-02-15T16:03:53.804Z,60.31
2019-02-15T16:06:24.860Z,59.48
2019-02-15T16:08:55.926Z,59.22
2019-02-15T16:11:26.442Z,59.45
2019-02-15T16:13:57.116Z,59.78
2019-02-15T16:16:27.811Z,59.45
2019-02-15T16:18:58.256Z,59.05
2019-02-15T16:21:29.036Z,58.51
2019-02-15T16:23:59.645Z,58.35
2019-02-15T16:26:30.012Z,57.86
2019-02-15T16:29:00.387Z,58.03
2019-02-15T16:31:31.378Z,58.16
2019-02-15T16:34:01.666Z,57.87
2019-02-15T16:36:32.228Z,58.45
2019-02-15T16:39:02.786Z,58.46
2019-02-15T16:41:34.339Z,58.12
2019-02-15T16:44:04.871Z,58.83
2019-02-15T16:46:35.692Z,58.04
2019-02-15T16:49:06.102Z,58.63
2019-02-15T16:51:36.438Z,58.19
2019-02-15T16:54:07.280Z,57.80
2019-02-15T16:56:37.619Z,58.27
2019-02-15T16:59:08.644Z,58.15
2019-02-15T17:01:39.552Z,58.81
2019-02-15T17:04:10.428Z,58.63
2019-02-15T17:06:41.053Z,58.38
2019-02-15T17:09:13.246Z,58.61
2019-02-15T17:11:43.631Z,58.91
2019-02-15T17:14:14.269Z,58.84
2019-02-15T17:16:44.586Z,59.05
2019-02-15T17:19:15.454Z,58.11
2019-02-15T17:21:45.817Z,57.79
2019-02-15T17:24:16.192Z,58.03
2019-02-15T17:26:46.496Z,58.87
2019-02-15T17:29:16.830Z,59.58
2019-02-15T17:31:47.149Z,60.19
2019-02-15T17:34:17.436Z,60.43
2019-02-15T17:36:47.755Z,59.41
2019-02-15T17:39:18.105Z,58.91
2019-02-15T17:41:48.428Z,59.38
2019-02-15T17:44:23.326Z,60.03
2019-02-15T17:46:54.073Z,59.46
2019-02-15T17:49:24.431Z,58.93
2019-02-15T17:51:56.843Z,58.56
2019-02-15T17:54:27.128Z,58.36
2019-02-15T17:56:57.449Z,58.85
2019-02-15T17:59:27.800Z,58.76
2019-02-15T18:01:58.114Z,60.10
2019-02-15T18:04:28.436Z,59.98
2019-02-15T18:06:58.720Z,59.74
2019-02-15T18:09:29.021Z,59.92
2019-02-15T18:11:59.343Z,60.67
2019-02-15T18:14:30.022Z,59.75
2019-02-15T18:17:02.358Z,59.44
2019-02-15T18:19:32.619Z,59.13
2019-02-15T18:22:03.150Z,58.75
2019-02-15T18:24:35.115Z,58.59
2019-02-15T18:27:05.488Z,58.41
2019-02-15T18:29:35.814Z,58.00
2019-02-15T18:32:06.163Z,58.39
2019-02-15T18:34:36.486Z,58.00
2019-02-15T18:37:06.815Z,57.71
2019-02-15T18:39:40.373Z,58.04
2019-02-15T18:42:10.996Z,57.95
2019-02-15T18:44:41.685Z,58.39
2019-02-15T18:47:12.551Z,58.53
2019-02-15T18:49:44.485Z,58.58
2019-02-15T18:52:14.910Z,58.32
2019-02-15T18:54:47.032Z,58.23
2019-02-15T18:57:17.374Z,58.02
2019-02-15T18:59:47.689Z,58.06
2019-02-15T19:02:18.085Z,57.63
2019-02-15T19:04:48.401Z,57.68
2019-02-15T19:07:18.662Z,57.70
2019-02-15T19:09:49.054Z,57.86
2019-02-15T19:12:19.600Z,57.84
2019-02-15T19:14:50.441Z,57.49
2019-02-15T19:17:21.472Z,57.23
2019-02-15T19:19:51.935Z,57.94
2019-02-15T19:22:22.865Z,59.29
2019-02-15T19:24:53.265Z,58.71
2019-02-15T19:27:24.252Z,57.99
2019-02-15T19:29:54.744Z,58.06
2019-02-15T19:32:25.393Z,57.79
2019-02-15T19:34:55.713Z,57.84
2019-02-15T19:37:29.268Z,58.13
2019-02-15T19:40:02.150Z,57.85
2019-02-15T19:42:33.084Z,57.11
2019-02-15T19:45:04.863Z,57.58
2019-02-15T19:47:35.454Z,57.98
2019-02-15T19:50:09.614Z,58.13
2019-02-15T19:52:40.357Z,57.92
2019-02-15T19:55:11.482Z,57.74
2019-02-15T19:57:42.487Z,57.94
2019-02-15T20:00:17.931Z,57.43
2019-02-15T20:02:48.348Z,58.00
2019-02-15T20:05:19.367Z,58.01
2019-02-15T20:07:49.740Z,58.64
2019-02-15T20:10:23.754Z,58.80
2019-02-15T20:12:54.340Z,58.08
2019-02-15T20:15:24.840Z,58.37
2019-02-15T20:17:55.656Z,59.02
2019-02-15T20:20:26.112Z,58.30
2019-02-15T20:22:56.416Z,58.85
2019-02-15T20:25:26.803Z,58.81
2019-02-15T20:27:57.165Z,58.61
2019-02-15T20:30:27.702Z,58.46
2019-02-15T20:32:59.561Z,58.65
2019-02-15T20:35:29.847Z,58.44
2019-02-15T20:38:01.693Z,58.60
2019-02-15T20:40:32.015Z,58.54
2019-02-15T20:43:02.479Z,58.61
2019-02-15T20:45:32.887Z,58.49
2019-02-15T20:48:03.881Z,59.34
2019-02-15T20:50:34.310Z,58.93
2019-02-15T20:53:04.776Z,59.55
2019-02-15T20:55:35.271Z,59.79
2019-02-15T20:58:05.933Z,59.67
2019-02-15T21:00:36.747Z,59.85
2019-02-15T21:03:07.093Z,59.72
2019-02-15T21:05:37.636Z,59.82
2019-02-15T21:08:08.078Z,59.19
2019-02-15T21:10:38.417Z,59.81
2019-02-15T21:13:08.819Z,59.86
2019-02-15T21:15:39.202Z,60.07
2019-02-15T21:18:09.590Z,59.81
2019-02-15T21:20:39.865Z,59.66
2019-02-15T21:23:10.462Z,60.27
2019-02-15T21:25:41.050Z,60.72
2019-02-15T21:28:12.575Z,59.88
2019-02-15T21:30:42.958Z,60.70
2019-02-15T21:33:13.657Z,60.21
2019-02-15T21:35:44.012Z,60.45
2019-02-15T21:38:14.465Z,59.72
2019-02-15T21:40:45.081Z,60.66
2019-02-15T21:43:16.471Z,60.47
2019-02-15T21:45:47.009Z,60.54
2019-02-15T21:48:17.667Z,60.47
2019-02-15T21:50:48.177Z,60.65
2019-02-15T21:53:18.917Z,60.25
2019-02-15T21:55:49.270Z,59.30
2019-02-15T21:58:22.538Z,59.48
2019-02-15T22:00:54.451Z,60.61
2019-02-15T22:03:26.276Z,60.67
2019-02-15T22:05:57.233Z,60.68
2019-02-15T22:08:27.934Z,60.09
2019-02-15T22:10:58.239Z,59.92
2019-02-15T22:13:28.525Z,60.18
2019-02-15T22:15:58.808Z,59.61
2019-02-15T22:18:29.141Z,59.88
2019-02-15T22:20:59.672Z,59.63
2019-02-15T22:23:30.031Z,58.95
2019-02-15T22:26:00.379Z,58.52
2019-02-15T22:28:30.677Z,58.81
2019-02-15T22:31:00.997Z,59.27
2019-02-15T22:33:31.275Z,59.82
2019-02-15T22:36:01.568Z,59.02
2019-02-15T22:38:31.854Z,59.78
2019-02-15T22:41:11.279Z,60.44
2019-02-15T22:43:43.293Z,60.15
2019-02-15T22:46:13.671Z,59.67
2019-02-15T22:48:43.994Z,59.82
2019-02-15T22:51:14.279Z,59.98
2019-02-15T22:53:44.581Z,59.62
2019-02-15T22:56:13.964Z,59.97
2019-02-15T22:58:44.240Z,59.07
2019-02-15T23:01:15.362Z,58.93
2019-02-15T23:03:45.636Z,58.89
2019-02-15T23:06:15.913Z,59.08
2019-02-15T23:08:46.209Z,58.83
2019-02-15T23:11:16.500Z,58.76
2019-02-15T23:13:46.778Z,58.20
2019-02-15T23:16:18.021Z,57.86
2019-02-15T23:18:49.934Z,57.92
2019-02-15T23:21:20.235Z,57.86
2019-02-15T23:23:50.528Z,58.41
2019-02-15T23:26:20.833Z,58.83
2019-02-15T23:28:51.125Z,58.70
2019-02-15T23:31:21.398Z,59.34
2019-02-15T23:33:54.488Z,59.31
2019-02-15T23:36:24.792Z,59.56
2019-02-15T23:38:55.061Z,59.09
2019-02-15T23:41:25.339Z,58.56
2019-02-15T23:43:55.641Z,59.23
2019-02-15T23:46:25.943Z,59.50
2019-02-15T23:48:56.225Z,59.53
2019-02-15T23:51:26.525Z,59.54
2019-02-15T23:53:56.797Z,59.37
2019-02-15T23:56:27.098Z,58.82
2019-02-15T23:58:57.451Z,57.63
